createdAt,value
2023-03-14T00:00:20.849Z,7.04
2023-03-14T00:02:55.781Z,7.04
2023-03-14T00:05:22.654Z,6.94
2023-03-14T00:07:51.499Z,6.95
2023-03-14T00:10:20.883Z,6.93
2023-03-14T00:12:48.600Z,6.93
2023-03-14T00:15:16.336Z,6.88
2023-03-14T00:17:44.315Z,6.82
2023-03-14T00:20:12.799Z,6.85
2023-03-14T00:22:41.848Z,6.86
2023-03-14T00:25:12.907Z,6.87
2023-03-14T00:27:39.973Z,6.84
2023-03-14T00:30:09.132Z,6.88
2023-03-14T00:32:36.183Z,6.83
2023-03-14T00:35:04.669Z,6.84
2023-03-14T00:37:32.314Z,6.82
2023-03-14T00:40:00.114Z,6.82
2023-03-14T00:42:28.388Z,6.84
2023-03-14T00:44:56.192Z,6.84
2023-03-14T00:47:23.086Z,6.87
2023-03-14T00:49:51.067Z,6.86
2023-03-14T00:52:18.128Z,6.87
2023-03-14T00:54:46.068Z,6.91
2023-03-14T00:57:13.754Z,6.91
2023-03-14T00:59:41.520Z,7.00
2023-03-14T01:02:09.403Z,7.15
2023-03-14T01:04:38.838Z,7.14
2023-03-14T01:07:06.551Z,7.27
2023-03-14T01:09:34.277Z,7.38
2023-03-14T01:12:02.014Z,7.49
2023-03-14T01:14:29.802Z,7.54
2023-03-14T01:17:01.777Z,7.39
2023-03-14T01:19:29.834Z,7.01
2023-03-14T01:21:56.688Z,6.79
2023-03-14T01:24:24.453Z,6.73
2023-03-14T01:26:52.414Z,6.64
2023-03-14T01:29:20.140Z,6.53
2023-03-14T01:31:47.885Z,6.57
2023-03-14T01:34:16.016Z,6.75
2023-03-14T01:36:43.653Z,6.71
2023-03-14T01:39:11.542Z,6.67
2023-03-14T01:41:40.568Z,6.76
2023-03-14T01:44:12.987Z,6.67
2023-03-14T01:46:41.920Z,6.50
2023-03-14T01:49:15.253Z,6.43
2023-03-14T01:51:46.663Z,6.36
2023-03-14T01:54:34.734Z,6.28
2023-03-14T01:57:16.792Z,6.30
2023-03-14T01:59:51.277Z,6.28
2023-03-14T02:02:19.721Z,6.21
2023-03-14T02:04:46.887Z,6.21
2023-03-14T02:07:18.955Z,6.28
2023-03-14T02:09:47.653Z,6.26
2023-03-14T02:12:17.658Z,6.34
2023-03-14T02:14:49.347Z,6.26
2023-03-14T02:17:20.319Z,6.28
2023-03-14T02:20:12.437Z,6.25
2023-03-14T02:22:41.886Z,6.33
2023-03-14T02:25:20.723Z,6.40
2023-03-14T02:27:49.572Z,6.37
2023-03-14T02:30:31.758Z,6.47
2023-03-14T02:33:09.549Z,6.45
2023-03-14T02:35:46.029Z,6.58
2023-03-14T02:38:25.063Z,6.54
2023-03-14T02:40:52.739Z,6.55
2023-03-14T02:43:19.779Z,6.54
2023-03-14T02:45:49.523Z,6.55
2023-03-14T02:48:29.647Z,6.52
2023-03-14T02:51:00.524Z,6.50
2023-03-14T02:53:35.609Z,6.54
2023-03-14T02:56:04.066Z,6.41
2023-03-14T02:58:33.172Z,6.46
2023-03-14T03:01:02.096Z,6.51
2023-03-14T03:03:31.704Z,6.46
2023-03-14T03:06:01.277Z,6.55
2023-03-14T03:08:29.852Z,6.49
2023-03-14T03:10:58.653Z,6.45
2023-03-14T03:13:26.768Z,6.47
2023-03-14T03:15:54.781Z,6.50
2023-03-14T03:18:21.844Z,6.49
2023-03-14T03:20:48.789Z,6.51
2023-03-14T03:23:15.844Z,6.45
2023-03-14T03:25:43.548Z,6.47
2023-03-14T03:28:11.181Z,6.56
2023-03-14T03:30:40.004Z,6.58
2023-03-14T03:33:08.293Z,6.57
2023-03-14T03:35:35.307Z,6.51
2023-03-14T03:38:02.238Z,6.53
2023-03-14T03:40:29.063Z,6.58
2023-03-14T03:42:56.795Z,6.46
2023-03-14T03:45:25.172Z,6.53
2023-03-14T03:47:54.047Z,6.49
2023-03-14T03:50:22.340Z,6.54
2023-03-14T03:52:49.326Z,6.47
2023-03-14T03:55:17.091Z,6.37
2023-03-14T03:57:44.757Z,6.31
2023-03-14T04:00:13.813Z,6.35
2023-03-14T04:02:42.827Z,6.36
2023-03-14T04:05:10.605Z,6.32
2023-03-14T04:07:39.399Z,6.50
2023-03-14T04:10:07.279Z,6.37
2023-03-14T04:12:34.318Z,6.48
2023-03-14T04:15:01.206Z,6.45
2023-03-14T04:17:30.610Z,6.43
2023-03-14T04:19:58.561Z,6.44
2023-03-14T04:22:25.363Z,6.56
2023-03-14T04:24:52.356Z,6.51
2023-03-14T04:27:21.391Z,6.49
2023-03-14T04:29:48.336Z,6.61
2023-03-14T04:32:17.358Z,6.71
2023-03-14T04:34:46.327Z,6.70
2023-03-14T04:37:14.250Z,6.68
2023-03-14T04:39:42.498Z,6.59
2023-03-14T04:42:10.411Z,6.61
2023-03-14T04:44:38.071Z,6.73
2023-03-14T04:47:06.121Z,6.69
2023-03-14T04:49:33.488Z,6.79
2023-03-14T04:52:01.108Z,6.80
2023-03-14T04:54:29.008Z,6.77
2023-03-14T04:56:58.044Z,6.64
2023-03-14T04:59:28.876Z,6.74
2023-03-14T05:01:57.597Z,6.67
2023-03-14T05:04:25.255Z,6.55
2023-03-14T05:06:54.792Z,6.72
2023-03-14T05:09:24.420Z,6.81
2023-03-14T05:11:51.757Z,6.90
2023-03-14T05:14:18.507Z,6.84
2023-03-14T05:16:48.392Z,6.74
2023-03-14T05:19:17.206Z,6.72
2023-03-14T05:21:45.366Z,6.75
2023-03-14T05:24:13.094Z,6.69
2023-03-14T05:26:40.909Z,6.67
2023-03-14T05:29:09.160Z,6.63
2023-03-14T05:31:36.028Z,6.75
2023-03-14T05:34:04.120Z,6.59
2023-03-14T05:36:32.949Z,6.71
2023-03-14T05:39:01.988Z,6.83
2023-03-14T05:41:32.760Z,6.93
2023-03-14T05:44:00.568Z,7.06
2023-03-14T05:46:31.738Z,7.12
2023-03-14T05:48:59.393Z,6.93
2023-03-14T05:51:27.489Z,6.77
2023-03-14T05:53:54.423Z,6.89
2023-03-14T05:56:24.141Z,6.91
2023-03-14T05:58:52.042Z,7.02
2023-03-14T06:01:18.988Z,6.89
2023-03-14T06:03:46.032Z,6.83
2023-03-14T06:06:13.030Z,6.92
2023-03-14T06:08:40.043Z,6.89
2023-03-14T06:11:08.644Z,6.97
2023-03-14T06:13:36.339Z,6.86
2023-03-14T06:16:04.402Z,6.86
2023-03-14T06:18:31.690Z,6.99
2023-03-14T06:20:58.611Z,6.91
2023-03-14T06:23:26.446Z,6.89
2023-03-14T06:25:54.350Z,7.05
2023-03-14T06:28:23.804Z,7.06
2023-03-14T06:30:53.313Z,7.13
2023-03-14T06:33:21.202Z,7.20
2023-03-14T06:35:48.118Z,7.16
2023-03-14T06:38:15.995Z,7.18
2023-03-14T06:40:43.701Z,7.19
2023-03-14T06:43:11.392Z,7.23
2023-03-14T06:45:38.984Z,7.53
2023-03-14T06:48:07.685Z,7.56
2023-03-14T06:50:35.203Z,7.47
2023-03-14T06:53:03.240Z,7.46
2023-03-14T06:55:31.193Z,7.52
2023-03-14T06:57:58.958Z,7.63
2023-03-14T07:00:28.460Z,7.70
2023-03-14T07:02:55.340Z,7.71
2023-03-14T07:05:23.028Z,7.67
2023-03-14T07:07:50.745Z,7.81
2023-03-14T07:10:18.652Z,7.74
2023-03-14T07:12:46.342Z,7.72
2023-03-14T07:15:18.584Z,7.68
2023-03-14T07:17:49.420Z,7.77
2023-03-14T07:20:17.632Z,7.81
2023-03-14T07:22:47.882Z,7.68
2023-03-14T07:25:15.639Z,7.70
2023-03-14T07:27:46.025Z,7.72
2023-03-14T07:30:13.564Z,7.76
2023-03-14T07:32:41.483Z,7.89
2023-03-14T07:35:09.489Z,7.99
2023-03-14T07:37:37.824Z,8.10
2023-03-14T07:40:08.160Z,8.11
2023-03-14T07:42:36.023Z,8.38
2023-03-14T07:45:04.516Z,8.53
2023-03-14T07:47:31.527Z,8.54
2023-03-14T07:50:00.141Z,8.43
2023-03-14T07:52:27.159Z,8.59
2023-03-14T07:54:54.034Z,8.48
2023-03-14T07:57:21.834Z,8.51
2023-03-14T07:59:49.543Z,8.60
2023-03-14T08:02:16.846Z,8.66
2023-03-14T08:04:44.660Z,8.96
2023-03-14T08:07:11.742Z,9.21
2023-03-14T08:09:38.587Z,9.26
2023-03-14T08:12:05.634Z,9.44
2023-03-14T08:14:32.638Z,9.65
2023-03-14T08:17:01.138Z,9.85
2023-03-14T08:19:28.050Z,9.89
2023-03-14T08:21:55.416Z,9.91
2023-03-14T08:24:22.402Z,9.88
2023-03-14T08:26:49.420Z,10.05
2023-03-14T08:29:17.322Z,10.47
2023-03-14T08:31:45.508Z,10.86
2023-03-14T08:34:12.479Z,10.93
2023-03-14T08:36:40.239Z,10.85
2023-03-14T08:39:08.736Z,11.06
2023-03-14T08:41:41.392Z,11.06
2023-03-14T08:44:10.218Z,11.66
2023-03-14T08:46:37.274Z,12.18
2023-03-14T08:49:05.101Z,12.04
2023-03-14T08:51:32.072Z,11.53
2023-03-14T08:54:00.613Z,11.40
2023-03-14T08:56:27.890Z,11.80
2023-03-14T08:58:55.614Z,11.74
2023-03-14T09:01:25.298Z,12.15
2023-03-14T09:03:52.865Z,12.53
2023-03-14T09:06:19.775Z,12.64
2023-03-14T09:08:46.934Z,12.10
2023-03-14T09:11:13.912Z,12.05
2023-03-14T09:13:42.310Z,12.30
2023-03-14T09:16:10.522Z,12.48
2023-03-14T09:18:37.958Z,13.04
2023-03-14T09:21:06.911Z,13.16
2023-03-14T09:23:34.747Z,13.54
2023-03-14T09:26:02.694Z,13.51
2023-03-14T09:28:29.553Z,13.82
2023-03-14T09:30:56.500Z,14.36
2023-03-14T09:33:24.487Z,14.71
2023-03-14T09:35:52.521Z,15.26
2023-03-14T09:38:21.988Z,14.91
2023-03-14T09:40:50.664Z,15.29
2023-03-14T09:43:18.636Z,15.55
2023-03-14T09:45:49.073Z,16.02
2023-03-14T09:48:21.794Z,16.13
2023-03-14T09:50:53.821Z,16.54
2023-03-14T09:53:46.016Z,16.24
2023-03-14T09:56:20.331Z,15.51
2023-03-14T09:59:00.622Z,15.59
2023-03-14T10:01:32.779Z,15.84
2023-03-14T10:04:14.832Z,15.48
2023-03-14T10:06:42.651Z,14.83
2023-03-14T10:09:26.267Z,14.68
2023-03-14T10:12:11.249Z,14.96
2023-03-14T10:14:48.826Z,15.03
2023-03-14T10:17:19.137Z,15.37
2023-03-14T10:19:55.780Z,15.46
2023-03-14T10:22:31.310Z,15.61
2023-03-14T10:25:06.713Z,15.52
2023-03-14T10:27:37.127Z,15.20
2023-03-14T10:30:30.642Z,14.83
2023-03-14T10:32:58.376Z,14.86
2023-03-14T10:35:26.836Z,14.90
2023-03-14T10:38:00.754Z,15.13
2023-03-14T10:40:32.723Z,15.46
2023-03-14T10:43:01.810Z,15.56
2023-03-14T10:45:40.282Z,15.85
2023-03-14T10:48:24.817Z,15.51
2023-03-14T10:51:04.623Z,15.44
2023-03-14T10:53:47.523Z,15.46
2023-03-14T10:56:18.349Z,15.65
2023-03-14T10:58:48.982Z,15.75
2023-03-14T11:01:32.291Z,15.75
2023-03-14T11:04:16.640Z,15.84
2023-03-14T11:06:47.619Z,15.99
2023-03-14T11:09:36.507Z,16.29
2023-03-14T11:12:33.412Z,16.81
2023-03-14T11:15:30.865Z,17.15
2023-03-14T11:18:25.417Z,16.70
2023-03-14T11:21:10.161Z,16.38
2023-03-14T11:24:06.686Z,16.65
2023-03-14T11:26:38.343Z,17.15
2023-03-14T11:29:30.629Z,17.47
2023-03-14T11:32:04.038Z,17.73
2023-03-14T11:34:51.111Z,17.78
2023-03-14T11:37:35.939Z,17.98
2023-03-14T11:40:23.159Z,18.23
2023-03-14T11:43:06.171Z,18.67
2023-03-14T11:45:39.583Z,18.85
2023-03-14T11:48:16.451Z,19.30
2023-03-14T11:50:47.600Z,19.80
2023-03-14T11:53:37.784Z,19.57
2023-03-14T11:56:05.926Z,19.85
2023-03-14T11:58:39.300Z,19.90
2023-03-14T12:01:12.294Z,19.89
2023-03-14T12:03:53.683Z,19.92
2023-03-14T12:06:39.047Z,20.10
2023-03-14T12:09:09.013Z,18.78
2023-03-14T12:11:45.756Z,18.59
2023-03-14T12:14:25.430Z,19.02
2023-03-14T12:17:39.113Z,19.21
2023-03-14T12:20:16.077Z,18.70
2023-03-14T12:22:54.509Z,19.14
2023-03-14T12:25:25.206Z,19.98
2023-03-14T12:27:55.850Z,18.97
2023-03-14T12:30:30.778Z,19.48
2023-03-14T12:33:10.609Z,19.68
2023-03-14T12:35:42.318Z,19.39
2023-03-14T12:38:22.169Z,19.79
2023-03-14T12:41:12.327Z,20.37
2023-03-14T12:43:40.443Z,20.96
2023-03-14T12:46:14.267Z,20.60
2023-03-14T12:48:42.337Z,21.08
2023-03-14T12:51:18.834Z,21.16
2023-03-14T12:54:08.418Z,21.70
2023-03-14T12:57:11.002Z,21.78
2023-03-14T13:00:05.001Z,22.09
2023-03-14T13:02:43.192Z,20.90
2023-03-14T13:05:12.795Z,20.31
2023-03-14T13:07:47.583Z,21.06
2023-03-14T13:10:27.169Z,21.45
2023-03-14T13:13:21.546Z,21.15
2023-03-14T13:15:54.911Z,21.08
2023-03-14T13:18:35.386Z,20.87
2023-03-14T13:21:20.756Z,20.74
2023-03-14T13:24:02.200Z,21.02
2023-03-14T13:26:44.225Z,21.39
2023-03-14T13:29:22.055Z,21.82
2023-03-14T13:31:53.369Z,21.41
2023-03-14T13:34:21.671Z,20.40
2023-03-14T13:36:53.227Z,21.13
2023-03-14T13:39:25.799Z,21.96
2023-03-14T13:41:55.298Z,22.26
2023-03-14T13:44:33.167Z,22.89
2023-03-14T13:47:06.622Z,22.62
2023-03-14T13:49:37.292Z,22.74
2023-03-14T13:52:22.341Z,22.65
2023-03-14T13:54:54.502Z,21.78
2023-03-14T13:57:22.142Z,20.38
2023-03-14T14:00:18.095Z,21.40
2023-03-14T14:02:45.941Z,21.79
2023-03-14T14:05:13.719Z,22.05
2023-03-14T14:07:44.926Z,22.18
2023-03-14T14:10:14.906Z,21.80
2023-03-14T14:13:12.012Z,22.33
2023-03-14T14:15:45.355Z,21.45
2023-03-14T14:18:18.098Z,22.04
2023-03-14T14:20:48.292Z,22.21
2023-03-14T14:23:26.400Z,22.14
2023-03-14T14:25:55.560Z,22.40
2023-03-14T14:28:31.012Z,22.72
2023-03-14T14:31:22.335Z,22.74
2023-03-14T14:34:02.086Z,21.34
2023-03-14T14:36:42.318Z,22.23
2023-03-14T14:39:21.100Z,22.69
2023-03-14T14:41:51.878Z,22.62
2023-03-14T14:44:33.315Z,22.79
2023-03-14T14:47:04.830Z,23.24
2023-03-14T14:49:34.249Z,23.32
2023-03-14T14:52:24.595Z,22.93
2023-03-14T14:54:55.839Z,22.75
2023-03-14T14:57:26.569Z,22.47
2023-03-14T14:59:57.756Z,22.52
2023-03-14T15:02:46.224Z,22.79
2023-03-14T15:05:27.023Z,22.73
2023-03-14T15:07:55.227Z,22.72
2023-03-14T15:10:25.643Z,22.01
2023-03-14T15:12:53.606Z,22.14
2023-03-14T15:15:22.128Z,22.06
2023-03-14T15:17:49.878Z,22.11
2023-03-14T15:20:19.314Z,21.88
2023-03-14T15:22:48.478Z,21.54
2023-03-14T15:25:40.153Z,21.30
2023-03-14T15:28:06.636Z,20.94
2023-03-14T15:30:35.216Z,21.15
2023-03-14T15:33:02.945Z,21.37
2023-03-14T15:35:30.724Z,21.29
2023-03-14T15:37:58.539Z,20.35
2023-03-14T15:40:29.480Z,20.71
2023-03-14T15:42:59.060Z,20.70
2023-03-14T15:45:26.786Z,20.63
2023-03-14T15:47:54.815Z,20.76
2023-03-14T15:50:22.813Z,20.16
2023-03-14T15:52:50.650Z,20.48
2023-03-14T15:55:18.300Z,20.44
2023-03-14T15:57:46.854Z,20.37
2023-03-14T16:00:16.737Z,20.42
2023-03-14T16:02:46.145Z,20.36
2023-03-14T16:05:15.188Z,20.63
2023-03-14T16:07:43.198Z,20.33
2023-03-14T16:10:12.777Z,20.47
2023-03-14T16:12:41.938Z,20.71
2023-03-14T16:15:10.943Z,20.84
2023-03-14T16:17:41.151Z,21.02
2023-03-14T16:20:10.876Z,20.82
2023-03-14T16:22:39.568Z,21.00
2023-03-14T16:25:08.628Z,20.63
2023-03-14T16:27:37.168Z,20.46
2023-03-14T16:30:06.492Z,20.37
2023-03-14T16:32:35.484Z,20.41
2023-03-14T16:35:04.525Z,20.27
2023-03-14T16:37:32.414Z,20.14
2023-03-14T16:43:14.525Z,19.95
2023-03-14T16:45:38.202Z,19.92
2023-03-14T16:48:06.120Z,19.59
2023-03-14T16:50:34.993Z,19.67
2023-03-14T16:53:03.080Z,19.66
2023-03-14T16:55:30.906Z,19.64
2023-03-14T16:57:59.164Z,19.05
2023-03-14T17:00:27.611Z,18.92
2023-03-14T17:02:55.848Z,18.85
2023-03-14T17:05:22.772Z,18.82
2023-03-14T17:07:51.285Z,18.62
2023-03-14T17:10:20.006Z,18.81
2023-03-14T17:12:47.729Z,18.76
2023-03-14T17:15:15.914Z,18.55
2023-03-14T17:17:45.045Z,18.48
2023-03-14T17:20:13.547Z,18.36
2023-03-14T17:22:41.234Z,18.07
2023-03-14T17:25:09.925Z,17.76
2023-03-14T17:27:37.802Z,17.60
2023-03-14T17:30:07.401Z,17.14
2023-03-14T17:32:35.403Z,16.85
2023-03-14T17:35:03.471Z,16.52
2023-03-14T17:37:32.683Z,16.40
2023-03-14T17:40:01.725Z,15.92
2023-03-14T17:42:31.535Z,15.51
2023-03-14T17:45:04.590Z,15.71
2023-03-14T17:47:33.281Z,15.51
2023-03-14T17:50:05.474Z,15.80
2023-03-14T17:52:36.164Z,16.17
2023-03-14T17:55:06.540Z,15.85
2023-03-14T17:57:39.825Z,15.68
2023-03-14T18:00:10.019Z,15.42
2023-03-14T18:02:40.475Z,15.66
2023-03-14T18:05:09.284Z,15.52
2023-03-14T18:07:39.144Z,15.56
2023-03-14T18:10:10.471Z,15.83
2023-03-14T18:12:38.251Z,15.69
2023-03-14T18:15:06.511Z,15.60
2023-03-14T18:17:34.259Z,15.86
2023-03-14T18:20:03.015Z,15.89
2023-03-14T18:22:31.852Z,15.70
2023-03-14T18:25:00.769Z,15.19
2023-03-14T18:27:29.678Z,15.26
2023-03-14T18:29:58.295Z,15.46
2023-03-14T18:32:27.096Z,15.12
2023-03-14T18:34:54.975Z,15.01
2023-03-14T18:37:23.107Z,15.19
2023-03-14T18:39:51.637Z,15.41
2023-03-14T18:42:19.456Z,15.62
2023-03-14T18:44:48.285Z,15.57
2023-03-14T18:47:17.188Z,15.33
2023-03-14T18:49:45.720Z,14.98
2023-03-14T18:52:12.890Z,14.50
2023-03-14T18:54:41.268Z,14.83
2023-03-14T18:57:08.186Z,14.84
2023-03-14T18:59:36.146Z,14.83
2023-03-14T19:02:04.656Z,14.56
2023-03-14T19:04:33.412Z,14.51
2023-03-14T19:07:02.165Z,14.69
2023-03-14T19:09:30.933Z,14.55
2023-03-14T19:11:59.766Z,14.51
2023-03-14T19:14:28.330Z,14.26
2023-03-14T19:16:56.363Z,14.34
2023-03-14T19:19:24.944Z,14.31
2023-03-14T19:21:54.236Z,14.14
2023-03-14T19:24:23.000Z,14.34
2023-03-14T19:26:53.132Z,14.43
2023-03-14T19:29:22.466Z,14.53
2023-03-14T19:31:51.608Z,14.02
2023-03-14T19:34:20.063Z,13.33
2023-03-14T19:36:48.709Z,12.79
2023-03-14T19:39:17.315Z,12.74
2023-03-14T19:41:45.914Z,12.55
2023-03-14T19:44:14.571Z,12.64
2023-03-14T19:46:44.572Z,12.99
2023-03-14T19:49:11.710Z,13.36
2023-03-14T19:51:39.423Z,12.82
2023-03-14T19:54:07.540Z,12.99
2023-03-14T19:56:36.594Z,13.25
2023-03-14T19:59:05.258Z,13.60
2023-03-14T20:01:35.387Z,13.90
2023-03-14T20:04:24.204Z,13.82
2023-03-14T20:06:53.813Z,13.34
2023-03-14T20:09:23.367Z,13.36
2023-03-14T20:11:52.802Z,13.44
2023-03-14T20:14:21.653Z,13.46
2023-03-14T20:16:49.800Z,13.27
2023-03-14T20:19:22.419Z,13.50
2023-03-14T20:21:51.721Z,13.39
2023-03-14T20:24:20.904Z,13.32
2023-03-14T20:26:48.702Z,13.72
2023-03-14T20:29:16.800Z,14.03
2023-03-14T20:31:45.540Z,14.08
2023-03-14T20:34:14.131Z,14.41
2023-03-14T20:36:43.027Z,14.74
2023-03-14T20:39:14.417Z,14.65
2023-03-14T20:41:42.479Z,14.52
2023-03-14T20:44:13.283Z,14.83
2023-03-14T20:46:42.120Z,15.00
2023-03-14T20:49:10.961Z,15.13
2023-03-14T20:51:39.392Z,14.50
2023-03-14T20:54:14.321Z,13.84
2023-03-14T20:56:46.267Z,13.91
2023-03-14T20:59:15.623Z,14.09
2023-03-14T21:01:47.880Z,14.13
2023-03-14T21:04:16.999Z,14.32
2023-03-14T21:06:46.153Z,14.54
2023-03-14T21:09:15.122Z,14.30
2023-03-14T21:11:47.425Z,13.94
2023-03-14T21:14:18.240Z,13.76
2023-03-14T21:16:47.305Z,13.76
2023-03-14T21:19:16.763Z,13.85
2023-03-14T21:21:45.876Z,13.81
2023-03-14T21:24:15.713Z,14.01
2023-03-14T21:26:46.960Z,14.22
2023-03-14T21:29:15.670Z,13.81
2023-03-14T21:31:44.408Z,14.09
2023-03-14T21:34:13.027Z,14.27
2023-03-14T21:36:42.519Z,14.43
2023-03-14T21:39:11.236Z,14.44
2023-03-14T21:41:40.022Z,14.47
2023-03-14T21:44:08.587Z,14.56
2023-03-14T21:46:36.703Z,14.66
2023-03-14T21:49:05.251Z,14.69
2023-03-14T21:51:35.843Z,14.62
2023-03-14T21:54:10.254Z,14.31
2023-03-14T21:56:38.763Z,14.40
2023-03-14T21:59:06.458Z,14.30
2023-03-14T22:01:33.558Z,14.41
2023-03-14T22:04:02.276Z,14.43
2023-03-14T22:06:30.875Z,14.36
2023-03-14T22:08:59.483Z,14.51
2023-03-14T22:11:28.064Z,14.55
2023-03-14T22:13:56.890Z,14.43
2023-03-14T22:16:25.470Z,14.38
2023-03-14T22:18:54.129Z,14.31
2023-03-14T22:21:21.900Z,14.00
2023-03-14T22:23:50.974Z,14.07
2023-03-14T22:26:19.937Z,14.20
2023-03-14T22:28:48.458Z,14.25
2023-03-14T22:31:17.227Z,14.11
2023-03-14T22:33:45.911Z,14.23
2023-03-14T22:36:14.677Z,14.17
2023-03-14T22:38:43.353Z,14.09
2023-03-14T22:41:11.930Z,14.09
2023-03-14T22:43:39.688Z,13.96
2023-03-14T22:46:08.524Z,14.03
2023-03-14T22:48:37.053Z,13.92
2023-03-14T22:51:10.075Z,14.06
2023-03-14T22:53:39.285Z,14.10
2023-03-14T22:56:09.035Z,13.91
2023-03-14T22:58:36.982Z,14.10
2023-03-14T23:01:06.082Z,14.14
2023-03-14T23:03:35.017Z,14.28
2023-03-14T23:06:05.616Z,14.30
2023-03-14T23:08:34.125Z,14.40
2023-03-14T23:11:04.502Z,14.49
2023-03-14T23:13:33.550Z,14.50
2023-03-14T23:16:02.700Z,14.47
2023-03-14T23:18:30.478Z,14.19
2023-03-14T23:21:12.819Z,14.16
2023-03-14T23:23:42.953Z,14.15
2023-03-14T23:26:11.990Z,13.66
2023-03-14T23:28:40.026Z,13.20
2023-03-14T23:31:09.230Z,13.08
2023-03-14T23:33:38.565Z,13.10
2023-03-14T23:36:07.637Z,12.97
2023-03-14T23:38:35.712Z,12.82
2023-03-14T23:41:03.599Z,12.99
2023-03-14T23:43:32.705Z,13.09
2023-03-14T23:46:01.485Z,12.96
2023-03-14T23:48:33.883Z,12.85
2023-03-14T23:51:05.390Z,12.74
2023-03-14T23:53:34.519Z,12.40
2023-03-14T23:56:04.134Z,12.20
2023-03-14T23:58:36.252Z,11.15
